sensor_id;sensor_type;location;lat;lon;timestamp;P1;durP1;ratioP1;P2;durP2;ratioP2
4831;SDS011;2430;51.322;7.864;2023-11-19T00:02:11;1.00;;;0.90;;
4831;SDS011;2430;51.322;7.864;2023-11-19T00:04:37;1.10;;;0.90;;
4831;SDS011;2430;51.322;7.864;2023-11-19T00:07:04;2.33;;;0.80;;
4831;SDS011;2430;51.322;7.864;2023-11-19T00:09:31;0.90;;;0.90;;
4831;SDS011;2430;51.322;7.864;2023-11-19T00:11:58;1.03;;;0.80;;
4831;SDS011;2430;51.322;7.864;2023-11-19T00:14:27;0.90;;;0.80;;
4831;SDS011;2430;51.322;7.864;2023-11-19T00:16:54;2.33;;;0.73;;
4831;SDS011;2430;51.322;7.864;2023-11-19T00:19:20;1.63;;;0.80;;
4831;SDS011;2430;51.322;7.864;2023-11-19T00:21:47;2.20;;;0.70;;
4831;SDS011;2430;51.322;7.864;2023-11-19T00:24:13;1.30;;;0.77;;
4831;SDS011;2430;51.322;7.864;2023-11-19T00:26:41;0.90;;;0.80;;
4831;SDS011;2430;51.322;7.864;2023-11-19T00:29:08;0.87;;;0.80;;
4831;SDS011;2430;51.322;7.864;2023-11-19T00:31:36;0.93;;;0.80;;
4831;SDS011;2430;51.322;7.864;2023-11-19T00:34:03;0.90;;;0.70;;
4831;SDS011;2430;51.322;7.864;2023-11-19T00:36:31;0.70;;;0.70;;
4831;SDS011;2430;51.322;7.864;2023-11-19T00:38:58;1.00;;;0.87;;
4831;SDS011;2430;51.322;7.864;2023-11-19T00:41:24;1.70;;;0.90;;
4831;SDS011;2430;51.322;7.864;2023-11-19T00:43:51;1.00;;;0.90;;
4831;SDS011;2430;51.322;7.864;2023-11-19T00:46:18;3.27;;;0.80;;
4831;SDS011;2430;51.322;7.864;2023-11-19T00:48:46;1.00;;;0.90;;
4831;SDS011;2430;51.322;7.864;2023-11-19T00:51:13;1.27;;;0.80;;
4831;SDS011;2430;51.322;7.864;2023-11-19T00:53:40;3.57;;;1.00;;
4831;SDS011;2430;51.322;7.864;2023-11-19T00:56:07;1.33;;;0.97;;
4831;SDS011;2430;51.322;7.864;2023-11-19T00:58:34;1.57;;;1.03;;
4831;SDS011;2430;51.322;7.864;2023-11-19T01:01:02;0.80;;;0.80;;
4831;SDS011;2430;51.322;7.864;2023-11-19T01:03:30;1.53;;;1.10;;
4831;SDS011;2430;51.322;7.864;2023-11-19T01:05:59;0.97;;;0.90;;
4831;SDS011;2430;51.322;7.864;2023-11-19T01:08:27;0.80;;;0.80;;
4831;SDS011;2430;51.322;7.864;2023-11-19T01:10:54;1.13;;;1.03;;
4831;SDS011;2430;51.322;7.864;2023-11-19T01:13:21;1.33;;;1.00;;
4831;SDS011;2430;51.322;7.864;2023-11-19T01:15:48;3.17;;;2.07;;
4831;SDS011;2430;51.322;7.864;2023-11-19T01:18:14;1.10;;;1.00;;
4831;SDS011;2430;51.322;7.864;2023-11-19T01:20:42;0.90;;;0.90;;
4831;SDS011;2430;51.322;7.864;2023-11-19T01:23:10;1.20;;;1.10;;
4831;SDS011;2430;51.322;7.864;2023-11-19T01:25:36;1.50;;;1.10;;
4831;SDS011;2430;51.322;7.864;2023-11-19T01:28:03;3.60;;;1.23;;
4831;SDS011;2430;51.322;7.864;2023-11-19T01:30:30;1.80;;;1.70;;
4831;SDS011;2430;51.322;7.864;2023-11-19T01:32:57;2.33;;;1.13;;
4831;SDS011;2430;51.322;7.864;2023-11-19T01:35:23;1.50;;;1.40;;
4831;SDS011;2430;51.322;7.864;2023-11-19T01:37:49;2.20;;;1.53;;
4831;SDS011;2430;51.322;7.864;2023-11-19T01:40:21;1.40;;;1.30;;
4831;SDS011;2430;51.322;7.864;2023-11-19T01:42:47;1.83;;;1.73;;
4831;SDS011;2430;51.322;7.864;2023-11-19T01:45:20;1.70;;;1.50;;
4831;SDS011;2430;51.322;7.864;2023-11-19T01:47:48;1.63;;;1.53;;
4831;SDS011;2430;51.322;7.864;2023-11-19T01:50:14;1.77;;;1.63;;
4831;SDS011;2430;51.322;7.864;2023-11-19T01:52:41;1.90;;;1.80;;
4831;SDS011;2430;51.322;7.864;2023-11-19T01:55:07;3.93;;;2.10;;
4831;SDS011;2430;51.322;7.864;2023-11-19T01:57:36;1.93;;;1.50;;
4831;SDS011;2430;51.322;7.864;2023-11-19T02:00:02;1.50;;;1.40;;
4831;SDS011;2430;51.322;7.864;2023-11-19T02:02:29;1.57;;;1.47;;
4831;SDS011;2430;51.322;7.864;2023-11-19T02:04:55;1.47;;;1.33;;
4831;SDS011;2430;51.322;7.864;2023-11-19T02:07:22;2.40;;;1.13;;
4831;SDS011;2430;51.322;7.864;2023-11-19T02:09:50;1.20;;;1.10;;
4831;SDS011;2430;51.322;7.864;2023-11-19T02:12:16;1.00;;;0.90;;
4831;SDS011;2430;51.322;7.864;2023-11-19T02:14:45;1.37;;;1.07;;
4831;SDS011;2430;51.322;7.864;2023-11-19T02:17:24;1.40;;;1.07;;
4831;SDS011;2430;51.322;7.864;2023-11-19T02:19:51;1.00;;;0.90;;
4831;SDS011;2430;51.322;7.864;2023-11-19T02:22:18;2.57;;;1.00;;
4831;SDS011;2430;51.322;7.864;2023-11-19T02:24:44;1.10;;;1.00;;
4831;SDS011;2430;51.322;7.864;2023-11-19T02:27:14;2.23;;;1.17;;
4831;SDS011;2430;51.322;7.864;2023-11-19T02:29:43;1.30;;;1.20;;
4831;SDS011;2430;51.322;7.864;2023-11-19T02:32:10;1.30;;;1.17;;
4831;SDS011;2430;51.322;7.864;2023-11-19T02:34:38;1.20;;;1.10;;
4831;SDS011;2430;51.322;7.864;2023-11-19T02:37:04;2.13;;;1.30;;
4831;SDS011;2430;51.322;7.864;2023-11-19T02:39:31;1.70;;;1.60;;
4831;SDS011;2430;51.322;7.864;2023-11-19T02:41:57;3.50;;;1.83;;
4831;SDS011;2430;51.322;7.864;2023-11-19T02:44:23;3.00;;;1.80;;
4831;SDS011;2430;51.322;7.864;2023-11-19T02:46:54;1.93;;;1.83;;
4831;SDS011;2430;51.322;7.864;2023-11-19T02:49:21;2.83;;;1.83;;
4831;SDS011;2430;51.322;7.864;2023-11-19T02:51:49;2.77;;;2.53;;
4831;SDS011;2430;51.322;7.864;2023-11-19T02:54:16;2.30;;;2.10;;
4831;SDS011;2430;51.322;7.864;2023-11-19T02:56:43;7.97;;;2.40;;
4831;SDS011;2430;51.322;7.864;2023-11-19T02:59:12;2.60;;;2.30;;
4831;SDS011;2430;51.322;7.864;2023-11-19T03:01:52;6.10;;;2.50;;
4831;SDS011;2430;51.322;7.864;2023-11-19T03:04:20;5.47;;;2.63;;
4831;SDS011;2430;51.322;7.864;2023-11-19T03:06:48;2.50;;;2.30;;
4831;SDS011;2430;51.322;7.864;2023-11-19T03:09:14;4.73;;;2.60;;
4831;SDS011;2430;51.322;7.864;2023-11-19T03:11:41;5.47;;;2.20;;
4831;SDS011;2430;51.322;7.864;2023-11-19T03:14:07;4.27;;;2.30;;
4831;SDS011;2430;51.322;7.864;2023-11-19T03:16:34;6.33;;;2.87;;
4831;SDS011;2430;51.322;7.864;2023-11-19T03:19:01;6.53;;;3.03;;
4831;SDS011;2430;51.322;7.864;2023-11-19T03:21:30;5.70;;;2.43;;
4831;SDS011;2430;51.322;7.864;2023-11-19T03:23:57;5.10;;;2.60;;
4831;SDS011;2430;51.322;7.864;2023-11-19T03:26:25;7.97;;;2.37;;
4831;SDS011;2430;51.322;7.864;2023-11-19T03:28:52;7.63;;;2.87;;
4831;SDS011;2430;51.322;7.864;2023-11-19T03:31:19;5.90;;;2.60;;
4831;SDS011;2430;51.322;7.864;2023-11-19T03:33:46;10.33;;;2.93;;
4831;SDS011;2430;51.322;7.864;2023-11-19T03:36:13;8.97;;;2.80;;
4831;SDS011;2430;51.322;7.864;2023-11-19T03:38:41;10.03;;;2.70;;
4831;SDS011;2430;51.322;7.864;2023-11-19T03:41:11;6.60;;;2.53;;
4831;SDS011;2430;51.322;7.864;2023-11-19T03:43:38;8.83;;;2.47;;
4831;SDS011;2430;51.322;7.864;2023-11-19T03:46:07;9.00;;;2.37;;
4831;SDS011;2430;51.322;7.864;2023-11-19T03:48:41;11.30;;;2.90;;
4831;SDS011;2430;51.322;7.864;2023-11-19T03:51:08;13.00;;;3.33;;
4831;SDS011;2430;51.322;7.864;2023-11-19T03:53:35;9.70;;;2.90;;
4831;SDS011;2430;51.322;7.864;2023-11-19T03:56:03;11.03;;;2.90;;
4831;SDS011;2430;51.322;7.864;2023-11-19T03:58:29;13.20;;;3.20;;
4831;SDS011;2430;51.322;7.864;2023-11-19T04:00:56;8.27;;;3.13;;
4831;SDS011;2430;51.322;7.864;2023-11-19T04:03:23;13.97;;;3.23;;
4831;SDS011;2430;51.322;7.864;2023-11-19T04:05:49;7.87;;;2.30;;
4831;SDS011;2430;51.322;7.864;2023-11-19T04:08:15;10.63;;;2.93;;
4831;SDS011;2430;51.322;7.864;2023-11-19T04:10:42;10.30;;;2.80;;
4831;SDS011;2430;51.322;7.864;2023-11-19T04:13:09;7.50;;;2.20;;
4831;SDS011;2430;51.322;7.864;2023-11-19T04:15:36;11.10;;;2.63;;
4831;SDS011;2430;51.322;7.864;2023-11-19T04:18:02;10.80;;;3.00;;
4831;SDS011;2430;51.322;7.864;2023-11-19T04:20:28;13.27;;;2.20;;
4831;SDS011;2430;51.322;7.864;2023-11-19T04:22:56;9.47;;;3.10;;
4831;SDS011;2430;51.322;7.864;2023-11-19T04:25:25;8.63;;;3.00;;
4831;SDS011;2430;51.322;7.864;2023-11-19T04:27:52;11.77;;;3.07;;
4831;SDS011;2430;51.322;7.864;2023-11-19T04:30:20;7.80;;;2.60;;
4831;SDS011;2430;51.322;7.864;2023-11-19T04:32:47;13.10;;;2.50;;
4831;SDS011;2430;51.322;7.864;2023-11-19T04:35:13;7.73;;;2.50;;
4831;SDS011;2430;51.322;7.864;2023-11-19T04:37:41;8.33;;;2.20;;
4831;SDS011;2430;51.322;7.864;2023-11-19T04:40:08;8.03;;;2.60;;
4831;SDS011;2430;51.322;7.864;2023-11-19T04:42:37;13.40;;;3.23;;
4831;SDS011;2430;51.322;7.864;2023-11-19T04:45:06;16.20;;;2.83;;
4831;SDS011;2430;51.322;7.864;2023-11-19T04:47:34;9.90;;;3.97;;
4831;SDS011;2430;51.322;7.864;2023-11-19T04:50:01;11.07;;;2.67;;
4831;SDS011;2430;51.322;7.864;2023-11-19T04:52:28;11.93;;;2.60;;
4831;SDS011;2430;51.322;7.864;2023-11-19T04:54:55;15.47;;;3.00;;
4831;SDS011;2430;51.322;7.864;2023-11-19T04:57:23;11.03;;;3.13;;
4831;SDS011;2430;51.322;7.864;2023-11-19T04:59:50;13.47;;;3.00;;
4831;SDS011;2430;51.322;7.864;2023-11-19T05:02:16;12.63;;;3.17;;
4831;SDS011;2430;51.322;7.864;2023-11-19T05:04:45;12.20;;;2.67;;
4831;SDS011;2430;51.322;7.864;2023-11-19T05:07:12;9.63;;;2.90;;
4831;SDS011;2430;51.322;7.864;2023-11-19T05:09:38;12.73;;;3.20;;
4831;SDS011;2430;51.322;7.864;2023-11-19T05:12:06;17.30;;;3.80;;
4831;SDS011;2430;51.322;7.864;2023-11-19T05:14:35;13.33;;;2.70;;
4831;SDS011;2430;51.322;7.864;2023-11-19T05:17:02;17.73;;;3.53;;
4831;SDS011;2430;51.322;7.864;2023-11-19T05:19:29;16.07;;;3.00;;
4831;SDS011;2430;51.322;7.864;2023-11-19T05:21:57;15.90;;;3.83;;
4831;SDS011;2430;51.322;7.864;2023-11-19T05:24:24;19.53;;;3.60;;
4831;SDS011;2430;51.322;7.864;2023-11-19T05:26:51;19.23;;;3.03;;
4831;SDS011;2430;51.322;7.864;2023-11-19T05:29:18;20.37;;;6.10;;
4831;SDS011;2430;51.322;7.864;2023-11-19T05:31:45;19.37;;;6.47;;
4831;SDS011;2430;51.322;7.864;2023-11-19T05:34:12;20.07;;;5.50;;
4831;SDS011;2430;51.322;7.864;2023-11-19T05:36:40;8.83;;;2.93;;
4831;SDS011;2430;51.322;7.864;2023-11-19T05:39:08;12.23;;;3.63;;
4831;SDS011;2430;51.322;7.864;2023-11-19T05:41:36;14.37;;;4.13;;
4831;SDS011;2430;51.322;7.864;2023-11-19T05:44:03;19.33;;;4.10;;
4831;SDS011;2430;51.322;7.864;2023-11-19T05:46:30;22.47;;;3.17;;
4831;SDS011;2430;51.322;7.864;2023-11-19T05:48:56;11.70;;;3.17;;
4831;SDS011;2430;51.322;7.864;2023-11-19T05:51:23;20.27;;;4.10;;
4831;SDS011;2430;51.322;7.864;2023-11-19T05:53:50;14.27;;;3.33;;
4831;SDS011;2430;51.322;7.864;2023-11-19T05:56:18;15.63;;;3.37;;
4831;SDS011;2430;51.322;7.864;2023-11-19T05:58:46;12.73;;;3.43;;
4831;SDS011;2430;51.322;7.864;2023-11-19T06:01:14;18.17;;;3.27;;
4831;SDS011;2430;51.322;7.864;2023-11-19T06:03:40;20.40;;;3.90;;
4831;SDS011;2430;51.322;7.864;2023-11-19T06:06:08;16.40;;;3.10;;
4831;SDS011;2430;51.322;7.864;2023-11-19T06:08:35;19.80;;;4.20;;
4831;SDS011;2430;51.322;7.864;2023-11-19T06:11:02;17.93;;;3.50;;
4831;SDS011;2430;51.322;7.864;2023-11-19T06:13:30;12.50;;;3.40;;
4831;SDS011;2430;51.322;7.864;2023-11-19T06:15:56;24.10;;;4.50;;
4831;SDS011;2430;51.322;7.864;2023-11-19T06:18:23;21.20;;;3.63;;
4831;SDS011;2430;51.322;7.864;2023-11-19T06:20:50;17.60;;;3.90;;
4831;SDS011;2430;51.322;7.864;2023-11-19T06:23:16;14.10;;;3.10;;
4831;SDS011;2430;51.322;7.864;2023-11-19T06:25:42;8.60;;;2.77;;
4831;SDS011;2430;51.322;7.864;2023-11-19T06:28:09;12.50;;;3.30;;
4831;SDS011;2430;51.322;7.864;2023-11-19T06:30:37;24.10;;;4.33;;
4831;SDS011;2430;51.322;7.864;2023-11-19T06:33:03;20.57;;;4.10;;
4831;SDS011;2430;51.322;7.864;2023-11-19T06:35:29;14.07;;;3.20;;
4831;SDS011;2430;51.322;7.864;2023-11-19T06:38:01;20.97;;;3.77;;
4831;SDS011;2430;51.322;7.864;2023-11-19T06:40:27;20.57;;;3.30;;
4831;SDS011;2430;51.322;7.864;2023-11-19T06:42:54;27.50;;;4.10;;
4831;SDS011;2430;51.322;7.864;2023-11-19T06:45:21;16.53;;;3.63;;
4831;SDS011;2430;51.322;7.864;2023-11-19T06:47:49;12.43;;;3.30;;
4831;SDS011;2430;51.322;7.864;2023-11-19T06:50:16;20.53;;;4.40;;
4831;SDS011;2430;51.322;7.864;2023-11-19T06:52:44;16.13;;;3.90;;
4831;SDS011;2430;51.322;7.864;2023-11-19T06:55:10;20.80;;;3.33;;
4831;SDS011;2430;51.322;7.864;2023-11-19T06:57:37;20.63;;;4.17;;
4831;SDS011;2430;51.322;7.864;2023-11-19T07:00:03;17.20;;;4.67;;
4831;SDS011;2430;51.322;7.864;2023-11-19T07:02:31;16.13;;;3.03;;
4831;SDS011;2430;51.322;7.864;2023-11-19T07:04:58;13.50;;;3.07;;
4831;SDS011;2430;51.322;7.864;2023-11-19T07:07:25;18.47;;;3.90;;
4831;SDS011;2430;51.322;7.864;2023-11-19T07:09:51;21.73;;;3.00;;
4831;SDS011;2430;51.322;7.864;2023-11-19T07:12:17;30.00;;;3.97;;
4831;SDS011;2430;51.322;7.864;2023-11-19T07:14:44;17.43;;;4.10;;
4831;SDS011;2430;51.322;7.864;2023-11-19T07:17:11;15.77;;;3.50;;
4831;SDS011;2430;51.322;7.864;2023-11-19T07:19:37;22.07;;;3.40;;
4831;SDS011;2430;51.322;7.864;2023-11-19T07:22:05;14.10;;;3.60;;
4831;SDS011;2430;51.322;7.864;2023-11-19T07:24:32;13.87;;;2.87;;
4831;SDS011;2430;51.322;7.864;2023-11-19T07:26:58;17.40;;;3.40;;
4831;SDS011;2430;51.322;7.864;2023-11-19T07:29:25;12.90;;;3.50;;
4831;SDS011;2430;51.322;7.864;2023-11-19T07:31:52;26.23;;;3.60;;
4831;SDS011;2430;51.322;7.864;2023-11-19T07:34:18;11.53;;;2.93;;
4831;SDS011;2430;51.322;7.864;2023-11-19T07:36:45;14.43;;;3.47;;
4831;SDS011;2430;51.322;7.864;2023-11-19T07:39:14;17.17;;;3.60;;
4831;SDS011;2430;51.322;7.864;2023-11-19T07:41:40;14.97;;;3.53;;
4831;SDS011;2430;51.322;7.864;2023-11-19T07:44:07;19.50;;;4.13;;
4831;SDS011;2430;51.322;7.864;2023-11-19T07:46:33;18.17;;;3.80;;
4831;SDS011;2430;51.322;7.864;2023-11-19T07:48:59;17.77;;;3.70;;
4831;SDS011;2430;51.322;7.864;2023-11-19T07:51:27;16.47;;;4.13;;
4831;SDS011;2430;51.322;7.864;2023-11-19T07:53:54;16.10;;;3.70;;
4831;SDS011;2430;51.322;7.864;2023-11-19T07:56:22;17.00;;;3.50;;
4831;SDS011;2430;51.322;7.864;2023-11-19T07:58:47;20.43;;;3.43;;
4831;SDS011;2430;51.322;7.864;2023-11-19T08:01:15;16.50;;;3.63;;
4831;SDS011;2430;51.322;7.864;2023-11-19T08:03:42;17.17;;;3.87;;
4831;SDS011;2430;51.322;7.864;2023-11-19T08:06:08;16.97;;;4.57;;
4831;SDS011;2430;51.322;7.864;2023-11-19T08:08:35;17.13;;;3.20;;
4831;SDS011;2430;51.322;7.864;2023-11-19T08:11:03;16.57;;;3.70;;
4831;SDS011;2430;51.322;7.864;2023-11-19T08:13:31;19.43;;;3.70;;
4831;SDS011;2430;51.322;7.864;2023-11-19T08:15:58;19.20;;;3.60;;
4831;SDS011;2430;51.322;7.864;2023-11-19T08:18:24;14.27;;;3.70;;
4831;SDS011;2430;51.322;7.864;2023-11-19T08:20:50;16.63;;;3.23;;
4831;SDS011;2430;51.322;7.864;2023-11-19T08:23:18;11.03;;;3.80;;
4831;SDS011;2430;51.322;7.864;2023-11-19T08:25:45;17.20;;;3.43;;
4831;SDS011;2430;51.322;7.864;2023-11-19T08:28:12;17.40;;;3.83;;
4831;SDS011;2430;51.322;7.864;2023-11-19T08:30:40;19.13;;;3.57;;
4831;SDS011;2430;51.322;7.864;2023-11-19T08:33:06;19.77;;;3.53;;
4831;SDS011;2430;51.322;7.864;2023-11-19T08:35:32;18.20;;;3.57;;
4831;SDS011;2430;51.322;7.864;2023-11-19T08:37:59;28.47;;;3.87;;
4831;SDS011;2430;51.322;7.864;2023-11-19T08:40:26;16.30;;;3.47;;
4831;SDS011;2430;51.322;7.864;2023-11-19T08:42:52;15.00;;;3.90;;
4831;SDS011;2430;51.322;7.864;2023-11-19T08:45:18;20.87;;;3.93;;
4831;SDS011;2430;51.322;7.864;2023-11-19T08:47:46;21.83;;;3.17;;
4831;SDS011;2430;51.322;7.864;2023-11-19T08:50:13;17.83;;;3.40;;
4831;SDS011;2430;51.322;7.864;2023-11-19T08:52:39;29.90;;;3.87;;
4831;SDS011;2430;51.322;7.864;2023-11-19T08:55:06;15.40;;;3.87;;
4831;SDS011;2430;51.322;7.864;2023-11-19T08:57:34;18.87;;;3.47;;
4831;SDS011;2430;51.322;7.864;2023-11-19T09:00:00;19.53;;;3.60;;
4831;SDS011;2430;51.322;7.864;2023-11-19T09:02:26;12.13;;;3.47;;
4831;SDS011;2430;51.322;7.864;2023-11-19T09:04:54;17.83;;;3.50;;
4831;SDS011;2430;51.322;7.864;2023-11-19T09:07:20;15.50;;;4.47;;
4831;SDS011;2430;51.322;7.864;2023-11-19T09:09:47;21.37;;;3.77;;
4831;SDS011;2430;51.322;7.864;2023-11-19T09:12:13;23.83;;;4.33;;
4831;SDS011;2430;51.322;7.864;2023-11-19T09:14:40;24.53;;;3.90;;
4831;SDS011;2430;51.322;7.864;2023-11-19T09:17:07;20.10;;;3.93;;
4831;SDS011;2430;51.322;7.864;2023-11-19T09:19:35;17.57;;;3.83;;
4831;SDS011;2430;51.322;7.864;2023-11-19T09:22:05;26.90;;;4.57;;
4831;SDS011;2430;51.322;7.864;2023-11-19T09:24:34;15.40;;;3.80;;
4831;SDS011;2430;51.322;7.864;2023-11-19T09:27:00;19.73;;;3.87;;
4831;SDS011;2430;51.322;7.864;2023-11-19T09:29:26;17.97;;;4.17;;
4831;SDS011;2430;51.322;7.864;2023-11-19T09:31:54;18.20;;;5.90;;
4831;SDS011;2430;51.322;7.864;2023-11-19T09:34:20;18.73;;;3.80;;
4831;SDS011;2430;51.322;7.864;2023-11-19T09:36:46;16.63;;;3.93;;
4831;SDS011;2430;51.322;7.864;2023-11-19T09:39:18;23.13;;;5.93;;
4831;SDS011;2430;51.322;7.864;2023-11-19T09:41:55;23.63;;;4.20;;
4831;SDS011;2430;51.322;7.864;2023-11-19T09:44:24;23.30;;;4.83;;
4831;SDS011;2430;51.322;7.864;2023-11-19T09:46:51;23.03;;;4.93;;
4831;SDS011;2430;51.322;7.864;2023-11-19T09:49:19;23.17;;;5.53;;
4831;SDS011;2430;51.322;7.864;2023-11-19T09:51:47;23.97;;;3.63;;
4831;SDS011;2430;51.322;7.864;2023-11-19T09:54:13;20.33;;;4.20;;
4831;SDS011;2430;51.322;7.864;2023-11-19T09:56:41;14.73;;;3.97;;
4831;SDS011;2430;51.322;7.864;2023-11-19T09:59:08;11.50;;;4.00;;
4831;SDS011;2430;51.322;7.864;2023-11-19T10:01:35;26.60;;;4.77;;
4831;SDS011;2430;51.322;7.864;2023-11-19T10:04:01;22.00;;;3.63;;
4831;SDS011;2430;51.322;7.864;2023-11-19T10:06:28;15.77;;;4.50;;
4831;SDS011;2430;51.322;7.864;2023-11-19T10:08:54;26.70;;;4.93;;
4831;SDS011;2430;51.322;7.864;2023-11-19T10:11:21;19.60;;;3.53;;
4831;SDS011;2430;51.322;7.864;2023-11-19T10:13:49;15.33;;;3.47;;
4831;SDS011;2430;51.322;7.864;2023-11-19T10:16:15;17.47;;;3.80;;
4831;SDS011;2430;51.322;7.864;2023-11-19T10:18:44;21.07;;;4.50;;
4831;SDS011;2430;51.322;7.864;2023-11-19T10:21:11;20.00;;;4.10;;
4831;SDS011;2430;51.322;7.864;2023-11-19T10:23:51;23.90;;;4.13;;
4831;SDS011;2430;51.322;7.864;2023-11-19T10:26:17;20.20;;;3.93;;
4831;SDS011;2430;51.322;7.864;2023-11-19T10:28:46;22.37;;;4.10;;
4831;SDS011;2430;51.322;7.864;2023-11-19T10:31:23;21.00;;;4.40;;
4831;SDS011;2430;51.322;7.864;2023-11-19T10:33:51;19.30;;;4.10;;
4831;SDS011;2430;51.322;7.864;2023-11-19T10:36:18;18.33;;;4.83;;
4831;SDS011;2430;51.322;7.864;2023-11-19T10:38:51;20.20;;;4.30;;
4831;SDS011;2430;51.322;7.864;2023-11-19T10:41:26;20.40;;;3.50;;
4831;SDS011;2430;51.322;7.864;2023-11-19T10:43:53;25.37;;;5.10;;
4831;SDS011;2430;51.322;7.864;2023-11-19T10:46:21;19.37;;;3.73;;
4831;SDS011;2430;51.322;7.864;2023-11-19T10:48:49;23.23;;;5.00;;
4831;SDS011;2430;51.322;7.864;2023-11-19T10:51:18;23.87;;;5.50;;
4831;SDS011;2430;51.322;7.864;2023-11-19T10:53:46;20.10;;;4.30;;
4831;SDS011;2430;51.322;7.864;2023-11-19T10:56:15;25.70;;;5.33;;
4831;SDS011;2430;51.322;7.864;2023-11-19T10:58:45;18.80;;;5.47;;
4831;SDS011;2430;51.322;7.864;2023-11-19T11:01:13;15.67;;;3.57;;
4831;SDS011;2430;51.322;7.864;2023-11-19T11:03:40;24.27;;;3.97;;
4831;SDS011;2430;51.322;7.864;2023-11-19T11:06:08;22.63;;;4.10;;
4831;SDS011;2430;51.322;7.864;2023-11-19T11:08:36;25.60;;;5.00;;
4831;SDS011;2430;51.322;7.864;2023-11-19T11:11:03;20.07;;;4.80;;
4831;SDS011;2430;51.322;7.864;2023-11-19T11:13:29;26.13;;;4.27;;
4831;SDS011;2430;51.322;7.864;2023-11-19T11:15:57;22.53;;;4.40;;
4831;SDS011;2430;51.322;7.864;2023-11-19T11:18:24;16.07;;;4.03;;
4831;SDS011;2430;51.322;7.864;2023-11-19T11:20:51;20.53;;;4.10;;
4831;SDS011;2430;51.322;7.864;2023-11-19T11:23:35;22.03;;;5.37;;
4831;SDS011;2430;51.322;7.864;2023-11-19T11:26:15;18.77;;;5.50;;
4831;SDS011;2430;51.322;7.864;2023-11-19T11:28:52;21.40;;;3.80;;
4831;SDS011;2430;51.322;7.864;2023-11-19T11:31:24;16.03;;;3.30;;
4831;SDS011;2430;51.322;7.864;2023-11-19T11:34:01;16.57;;;3.60;;
4831;SDS011;2430;51.322;7.864;2023-11-19T11:36:29;20.97;;;4.50;;
4831;SDS011;2430;51.322;7.864;2023-11-19T11:38:59;18.60;;;4.60;;
4831;SDS011;2430;51.322;7.864;2023-11-19T11:41:26;15.97;;;3.90;;
4831;SDS011;2430;51.322;7.864;2023-11-19T11:43:53;18.77;;;3.70;;
4831;SDS011;2430;51.322;7.864;2023-11-19T11:49:05;17.37;;;3.83;;
4831;SDS011;2430;51.322;7.864;2023-11-19T11:54:26;21.63;;;4.43;;
4831;SDS011;2430;51.322;7.864;2023-11-19T11:57:00;12.60;;;3.70;;
4831;SDS011;2430;51.322;7.864;2023-11-19T11:59:31;18.60;;;5.07;;
4831;SDS011;2430;51.322;7.864;2023-11-19T12:01:57;34.20;;;11.43;;
4831;SDS011;2430;51.322;7.864;2023-11-19T12:04:25;22.33;;;3.97;;
4831;SDS011;2430;51.322;7.864;2023-11-19T12:07:02;25.27;;;6.83;;
4831;SDS011;2430;51.322;7.864;2023-11-19T12:09:30;19.00;;;5.37;;
4831;SDS011;2430;51.322;7.864;2023-11-19T12:12:06;15.33;;;3.43;;
4831;SDS011;2430;51.322;7.864;2023-11-19T12:19:59;22.13;;;6.57;;
4831;SDS011;2430;51.322;7.864;2023-11-19T12:22:27;23.93;;;4.73;;
4831;SDS011;2430;51.322;7.864;2023-11-19T12:24:55;28.97;;;3.77;;
4831;SDS011;2430;51.322;7.864;2023-11-19T12:27:22;12.60;;;3.73;;
4831;SDS011;2430;51.322;7.864;2023-11-19T12:29:50;14.93;;;3.83;;
4831;SDS011;2430;51.322;7.864;2023-11-19T12:32:24;20.13;;;3.80;;
4831;SDS011;2430;51.322;7.864;2023-11-19T12:34:50;11.23;;;2.97;;
4831;SDS011;2430;51.322;7.864;2023-11-19T12:37:16;12.43;;;3.20;;
4831;SDS011;2430;51.322;7.864;2023-11-19T12:39:43;19.10;;;3.77;;
4831;SDS011;2430;51.322;7.864;2023-11-19T12:42:11;16.60;;;3.37;;
4831;SDS011;2430;51.322;7.864;2023-11-19T12:44:38;27.37;;;9.60;;
4831;SDS011;2430;51.322;7.864;2023-11-19T12:47:05;17.10;;;3.30;;
4831;SDS011;2430;51.322;7.864;2023-11-19T12:49:34;17.47;;;4.00;;
4831;SDS011;2430;51.322;7.864;2023-11-19T12:52:11;20.13;;;3.50;;
4831;SDS011;2430;51.322;7.864;2023-11-19T12:54:44;14.90;;;3.20;;
4831;SDS011;2430;51.322;7.864;2023-11-19T12:57:17;15.00;;;3.70;;
4831;SDS011;2430;51.322;7.864;2023-11-19T13:00:00;14.63;;;3.57;;
4831;SDS011;2430;51.322;7.864;2023-11-19T13:02:44;15.10;;;3.30;;
4831;SDS011;2430;51.322;7.864;2023-11-19T13:05:21;14.83;;;3.20;;
4831;SDS011;2430;51.322;7.864;2023-11-19T13:07:47;13.93;;;3.70;;
4831;SDS011;2430;51.322;7.864;2023-11-19T13:10:14;19.90;;;3.83;;
4831;SDS011;2430;51.322;7.864;2023-11-19T13:12:42;21.87;;;3.97;;
4831;SDS011;2430;51.322;7.864;2023-11-19T13:15:21;17.10;;;3.53;;
4831;SDS011;2430;51.322;7.864;2023-11-19T13:17:48;13.43;;;3.40;;
4831;SDS011;2430;51.322;7.864;2023-11-19T13:20:15;15.67;;;3.50;;
4831;SDS011;2430;51.322;7.864;2023-11-19T13:22:53;22.60;;;4.13;;
4831;SDS011;2430;51.322;7.864;2023-11-19T13:25:19;23.97;;;4.20;;
4831;SDS011;2430;51.322;7.864;2023-11-19T13:27:47;10.20;;;2.63;;
4831;SDS011;2430;51.322;7.864;2023-11-19T13:30:14;12.23;;;3.00;;
4831;SDS011;2430;51.322;7.864;2023-11-19T13:32:42;21.03;;;3.30;;
4831;SDS011;2430;51.322;7.864;2023-11-19T13:35:09;14.13;;;3.27;;
4831;SDS011;2430;51.322;7.864;2023-11-19T13:37:36;21.00;;;4.23;;
4831;SDS011;2430;51.322;7.864;2023-11-19T13:40:03;13.63;;;5.27;;
4831;SDS011;2430;51.322;7.864;2023-11-19T13:42:29;18.23;;;3.97;;
4831;SDS011;2430;51.322;7.864;2023-11-19T13:44:57;20.77;;;4.07;;
4831;SDS011;2430;51.322;7.864;2023-11-19T13:47:24;14.00;;;3.30;;
4831;SDS011;2430;51.322;7.864;2023-11-19T13:49:50;13.80;;;3.40;;
4831;SDS011;2430;51.322;7.864;2023-11-19T13:52:17;13.80;;;3.10;;
4831;SDS011;2430;51.322;7.864;2023-11-19T13:54:44;15.63;;;3.40;;
4831;SDS011;2430;51.322;7.864;2023-11-19T13:57:10;14.67;;;3.83;;
4831;SDS011;2430;51.322;7.864;2023-11-19T13:59:39;10.70;;;3.20;;
4831;SDS011;2430;51.322;7.864;2023-11-19T14:02:07;14.33;;;3.77;;
4831;SDS011;2430;51.322;7.864;2023-11-19T14:04:33;13.20;;;2.93;;
4831;SDS011;2430;51.322;7.864;2023-11-19T14:07:00;12.07;;;3.60;;
4831;SDS011;2430;51.322;7.864;2023-11-19T14:09:26;16.93;;;3.30;;
4831;SDS011;2430;51.322;7.864;2023-11-19T14:11:54;14.33;;;2.77;;
4831;SDS011;2430;51.322;7.864;2023-11-19T14:14:20;14.30;;;3.00;;
4831;SDS011;2430;51.322;7.864;2023-11-19T14:16:47;14.37;;;4.47;;
4831;SDS011;2430;51.322;7.864;2023-11-19T14:19:15;13.77;;;3.50;;
4831;SDS011;2430;51.322;7.864;2023-11-19T14:21:42;12.97;;;3.27;;
4831;SDS011;2430;51.322;7.864;2023-11-19T14:24:09;14.63;;;3.80;;
4831;SDS011;2430;51.322;7.864;2023-11-19T14:26:36;15.57;;;3.63;;
4831;SDS011;2430;51.322;7.864;2023-11-19T14:29:03;16.43;;;2.90;;
4831;SDS011;2430;51.322;7.864;2023-11-19T14:31:29;14.23;;;3.50;;
4831;SDS011;2430;51.322;7.864;2023-11-19T14:33:55;15.30;;;3.13;;
4831;SDS011;2430;51.322;7.864;2023-11-19T14:36:23;10.27;;;2.83;;
4831;SDS011;2430;51.322;7.864;2023-11-19T14:38:50;16.43;;;3.47;;
4831;SDS011;2430;51.322;7.864;2023-11-19T14:41:16;14.60;;;3.30;;
4831;SDS011;2430;51.322;7.864;2023-11-19T14:43:43;12.57;;;3.23;;
4831;SDS011;2430;51.322;7.864;2023-11-19T14:46:09;16.13;;;3.13;;
4831;SDS011;2430;51.322;7.864;2023-11-19T14:48:36;14.83;;;3.13;;
4831;SDS011;2430;51.322;7.864;2023-11-19T14:51:02;15.00;;;2.57;;
4831;SDS011;2430;51.322;7.864;2023-11-19T14:53:31;8.67;;;2.97;;
4831;SDS011;2430;51.322;7.864;2023-11-19T14:55:57;23.60;;;4.00;;
4831;SDS011;2430;51.322;7.864;2023-11-19T14:58:23;16.30;;;3.30;;
4831;SDS011;2430;51.322;7.864;2023-11-19T15:00:50;10.93;;;2.80;;
4831;SDS011;2430;51.322;7.864;2023-11-19T15:03:17;19.83;;;3.60;;
4831;SDS011;2430;51.322;7.864;2023-11-19T15:05:44;13.63;;;3.00;;
4831;SDS011;2430;51.322;7.864;2023-11-19T15:08:11;20.23;;;2.87;;
4831;SDS011;2430;51.322;7.864;2023-11-19T15:10:39;17.00;;;3.87;;
4831;SDS011;2430;51.322;7.864;2023-11-19T15:13:06;15.30;;;3.27;;
4831;SDS011;2430;51.322;7.864;2023-11-19T15:15:32;15.20;;;3.40;;
4831;SDS011;2430;51.322;7.864;2023-11-19T15:17:59;8.30;;;2.67;;
4831;SDS011;2430;51.322;7.864;2023-11-19T15:20:25;10.73;;;2.93;;